Time;durP1;ratioP1;P1;durP2;ratioP2;P2;SDS_P1;SDS_P2;PMS_P1;PMS_P2;Temp;Humidity;BMP_temperature;BMP_pressure;BME280_temperature;BME280_humidity;BME280_pressure;Samples;Min_cycle;Max_cycle;Signal;HPM_P1;HPM_P2
2022/10/30 00:01:40;;;;;;;30.88;8.48;;;;;;;16.72;71.62;101316.19;5093167;28;20478;-64
2022/10/30 00:04:07;;;;;;;20.25;7.70;;;;;;;16.75;71.68;101310.47;5092615;28;20060;-64
2022/10/30 00:06:33;;;;;;;29.88;9.32;;;;;;;16.73;72.62;101310.66;5091044;28;20050;-64
2022/10/30 00:09:00;;;;;;;22.98;8.88;;;;;;;16.79;72.80;101314.44;5094576;28;20036;-64
2022/10/30 00:11:28;;;;;;;27.23;7.75;;;;;;;16.75;72.60;101321.19;5097158;28;20045;-64
2022/10/30 00:13:54;;;;;;;28.45;8.77;;;;;;;16.70;72.78;101316.38;5095808;28;20048;-64
2022/10/30 00:16:21;;;;;;;28.90;8.52;;;;;;;16.66;73.39;101313.22;5095777;28;20110;-64
2022/10/30 00:18:48;;;;;;;23.67;8.20;;;;;;;16.61;73.58;101315.63;5097120;28;20052;-65
2022/10/30 00:21:15;;;;;;;26.50;8.45;;;;;;;16.54;73.57;101322.69;5079174;28;20044;-64
2022/10/30 00:23:46;;;;;;;30.45;9.82;;;;;;;16.55;73.16;101323.53;5095706;28;20051;-65
2022/10/30 00:26:14;;;;;;;29.67;8.52;;;;;;;16.48;72.81;101318.03;5095492;28;20050;-65
2022/10/30 00:28:41;;;;;;;27.80;8.57;;;;;;;16.50;72.81;101308.84;5095200;28;20047;-64
2022/10/30 00:31:08;;;;;;;26.85;8.32;;;;;;;16.63;72.91;101316.25;5095579;28;20094;-64
2022/10/30 00:33:34;;;;;;;27.20;9.27;;;;;;;16.64;72.76;101322.44;5096618;28;20112;-63
2022/10/30 00:36:03;;;;;;;29.10;9.50;;;;;;;16.56;72.77;101328.72;5095059;28;20043;-63
2022/10/30 00:38:31;;;;;;;26.02;8.48;;;;;;;16.57;72.96;101327.72;5095496;28;20039;-63
2022/10/30 00:40:57;;;;;;;34.33;8.88;;;;;;;16.49;72.87;101325.91;5057584;28;20068;-64
2022/10/30 00:43:28;;;;;;;30.92;9.00;;;;;;;16.47;73.16;101314.53;5096624;28;20044;-64
2022/10/30 00:45:59;;;;;;;31.63;9.02;;;;;;;16.54;73.79;101308.47;5096113;28;20509;-63
2022/10/30 00:48:27;;;;;;;26.10;9.27;;;;;;;16.51;73.30;101315.84;5096584;28;20036;-63
2022/10/30 00:50:56;;;;;;;23.13;8.43;;;;;;;16.54;73.89;101309.31;5096452;28;20059;-64
2022/10/30 00:53:24;;;;;;;34.50;8.73;;;;;;;16.58;73.66;101304.44;5096209;28;20519;-63
2022/10/30 00:55:56;;;;;;;33.58;8.77;;;;;;;16.58;73.21;101315.97;5096182;28;20515;-63
2022/10/30 00:58:28;;;;;;;26.92;9.13;;;;;;;16.49;73.62;101315.19;5096070;28;20048;-63
2022/10/30 01:00:59;;;;;;;29.33;9.00;;;;;;;16.53;74.47;101312.97;5095366;28;20071;-63
2022/10/30 01:03:27;;;;;;;26.37;8.97;;;;;;;16.55;74.74;101312.81;5095932;28;20046;-63
2022/10/30 01:05:59;;;;;;;28.25;9.13;;;;;;;16.44;74.41;101319.41;5093887;28;20286;-63
2022/10/30 01:08:26;;;;;;;20.70;8.95;;;;;;;16.45;74.23;101316.56;5092175;28;20071;-63
2022/10/30 01:10:53;;;;;;;23.35;7.95;;;;;;;16.48;75.34;101310.88;5075682;28;20059;-63
2022/10/30 01:13:22;;;;;;;25.85;8.95;;;;;;;16.47;75.28;101308.34;5075137;28;20057;-63
2022/10/30 01:16:16;;;;;;;32.38;9.05;;;;;;;16.48;75.17;101315.38;5075196;28;20071;-64
2022/10/30 01:19:02;;;;;;;28.13;9.02;;;;;;;16.41;75.84;101311.72;5074836;28;20127;-64
2022/10/30 01:21:43;;;;;;;31.00;9.00;;;;;;;16.37;75.47;101313.09;5075279;28;20043;-64
2022/10/30 01:24:39;;;;;;;25.17;9.53;;;;;;;16.35;76.37;101307.09;5075407;28;20444;-64
2022/10/30 01:27:37;;;;;;;25.67;8.80;;;;;;;16.29;76.54;101314.84;5075257;28;20131;-63
2022/10/30 01:30:40;;;;;;;33.60;8.90;;;;;;;16.20;77.04;101318.56;5075158;28;20037;-63
2022/10/30 01:33:30;;;;;;;33.47;9.10;;;;;;;16.17;77.47;101318.09;5073909;28;20048;-64
2022/10/30 01:36:13;;;;;;;30.48;9.48;;;;;;;16.03;77.44;101315.16;5078507;28;20105;-64
2022/10/30 01:38:46;;;;;;;23.15;9.00;;;;;;;15.99;78.00;101315.69;5095052;28;20036;-64
2022/10/30 01:41:13;;;;;;;22.48;9.35;;;;;;;15.96;78.62;101306.19;5057562;28;20436;-63
2022/10/30 01:43:46;;;;;;;25.25;8.88;;;;;;;15.92;79.07;101307.53;5094869;28;20108;-63
2022/10/30 01:52:40;;;;;;;25.52;8.50;;;;;;;15.72;79.29;101305.25;5111169;27;20354;-63
2022/10/30 01:55:40;;;;;;;28.30;8.77;;;;;;;15.70;79.90;101304.59;5110496;28;20101;-63
2022/10/30 01:58:26;;;;;;;28.98;10.13;;;;;;;15.73;79.40;101304.28;5109612;28;20119;-63
2022/10/30 02:00:57;;;;;;;43.67;10.77;;;;;;;15.70;79.72;101301.09;5110530;28;20483;-62
2022/10/30 02:03:25;;;;;;;26.45;9.50;;;;;;;15.70;79.78;101287.72;5110921;28;20044;-63
2022/10/30 02:05:53;;;;;;;42.15;9.77;;;;;;;15.62;80.01;101290.44;5109524;28;20040;-62
2022/10/30 02:08:22;;;;;;;24.77;9.65;;;;;;;15.57;79.26;101292.78;5110876;28;20044;-63
2022/10/30 02:10:51;;;;;;;26.52;9.45;;;;;;;15.60;79.31;101292.44;5110546;28;20131;-63
2022/10/30 02:13:29;;;;;;;35.20;9.95;;;;;;;15.61;79.83;101283.41;5110551;28;20047;-63
2022/10/30 02:15:57;;;;;;;30.15;9.40;;;;;;;15.69;79.87;101276.19;5109341;28;20123;-63
2022/10/30 02:18:24;;;;;;;31.50;9.73;;;;;;;15.64;79.93;101281.22;5110355;28;20142;-63
2022/10/30 02:20:52;;;;;;;30.38;10.48;;;;;;;15.65;79.95;101287.41;5110668;28;20051;-65
2022/10/30 02:23:21;;;;;;;28.30;9.35;;;;;;;15.61;79.65;101292.28;5126200;28;20435;-63
2022/10/30 02:25:49;;;;;;;31.17;9.77;;;;;;;15.65;79.48;101298.13;5109192;28;20086;-63
2022/10/30 02:28:15;;;;;;;25.40;9.70;;;;;;;15.65;79.98;101301.63;5110099;28;20256;-65
2022/10/30 02:30:43;;;;;;;24.60;9.23;;;;;;;15.61;79.38;101302.97;5110387;28;20091;-65
2022/10/30 02:33:10;;;;;;;30.95;9.82;;;;;;;15.60;79.84;101298.63;5110029;28;20443;-64
2022/10/30 02:35:37;;;;;;;30.58;10.13;;;;;;;15.59;79.41;101299.66;5108760;28;20089;-64
2022/10/30 02:38:04;;;;;;;32.67;10.38;;;;;;;15.62;79.94;101298.44;5110127;28;20527;-64
2022/10/30 02:40:30;;;;;;;21.27;9.95;;;;;;;15.55;79.58;101299.16;5072784;28;20123;-64
2022/10/30 02:42:58;;;;;;;26.98;10.00;;;;;;;15.57;79.91;101293.59;5108633;28;20469;-65
2022/10/30 02:45:25;;;;;;;32.10;9.85;;;;;;;15.66;80.20;101295.28;5108503;28;20119;-65
2022/10/30 02:47:51;;;;;;;33.20;9.90;;;;;;;15.66;79.48;101289.94;5110139;28;20055;-64
2022/10/30 02:50:18;;;;;;;27.45;9.77;;;;;;;15.62;79.35;101293.09;5109909;28;20048;-64
2022/10/30 02:52:45;;;;;;;37.28;10.93;;;;;;;15.64;79.42;101283.06;5109529;28;20048;-64
2022/10/30 02:55:12;;;;;;;27.77;10.45;;;;;;;15.64;79.74;101283.88;5109684;28;20040;-65
2022/10/30 02:57:40;;;;;;;35.90;9.93;;;;;;;15.65;79.68;101300.78;5109365;28;20044;-64
2022/10/30 03:00:07;;;;;;;35.13;10.48;;;;;;;15.63;79.91;101303.63;5109767;28;20040;-65
2022/10/30 03:02:34;;;;;;;28.33;9.90;;;;;;;15.60;80.46;101292.44;5100326;28;20443;-64
2022/10/30 03:05:00;;;;;;;31.38;10.77;;;;;;;15.57;80.02;101295.47;5094127;28;20040;-64
2022/10/30 03:07:27;;;;;;;30.02;10.18;;;;;;;15.45;80.41;101293.16;5094598;28;20145;-65
2022/10/30 03:09:54;;;;;;;31.45;9.93;;;;;;;15.45;80.69;101297.69;5087640;28;20446;-65
2022/10/30 03:12:21;;;;;;;32.13;10.25;;;;;;;15.45;80.92;101301.19;5074560;28;20547;-63
2022/10/30 03:14:48;;;;;;;29.83;10.38;;;;;;;15.44;80.78;101307.53;5075620;28;20059;-63
2022/10/30 03:17:15;;;;;;;30.98;9.93;;;;;;;15.45;81.03;101306.53;5075486;28;20040;-63
2022/10/30 03:19:41;;;;;;;37.05;9.98;;;;;;;15.40;81.50;101303.53;5075591;28;20530;-63
2022/10/30 03:22:08;;;;;;;26.33;9.90;;;;;;;15.33;81.28;101300.75;5075559;28;20062;-63
2022/10/30 03:24:37;;;;;;;29.70;11.45;;;;;;;15.32;81.61;101304.41;5075489;28;20048;-63
2022/10/30 03:27:04;;;;;;;38.30;10.35;;;;;;;15.29;81.84;101309.25;5075248;28;20052;-63
2022/10/30 03:29:31;;;;;;;36.75;10.55;;;;;;;15.21;82.26;101295.91;5074984;28;20068;-64
2022/10/30 03:31:57;;;;;;;28.60;10.10;;;;;;;15.13;82.25;101299.44;5073889;28;20486;-63
2022/10/30 03:34:29;;;;;;;25.58;10.48;;;;;;;14.99;82.87;101295.63;5075220;28;20048;-63
2022/10/30 03:36:57;;;;;;;26.30;10.52;;;;;;;14.99;83.04;101298.31;5087830;28;20044;-63
2022/10/30 03:39:24;;;;;;;26.33;10.68;;;;;;;14.97;83.26;101300.28;5065641;28;20044;-62
2022/10/30 03:41:51;;;;;;;31.02;10.07;;;;;;;14.92;83.77;101306.16;5071236;28;20036;-65
2022/10/30 03:44:18;;;;;;;38.50;10.15;;;;;;;14.90;83.99;101304.66;5095154;28;20118;-64
2022/10/30 03:46:44;;;;;;;31.95;10.48;;;;;;;14.86;84.14;101309.50;5095220;28;20123;-64
2022/10/30 03:49:24;;;;;;;27.60;9.88;;;;;;;14.84;84.19;101305.31;5078920;28;20051;-64
2022/10/30 03:51:52;;;;;;;26.13;9.85;;;;;;;14.81;84.40;101316.34;5094966;28;20509;-63
2022/10/30 03:54:20;;;;;;;30.15;10.45;;;;;;;14.80;84.28;101320.84;5095175;28;20074;-62
2022/10/30 03:56:49;;;;;;;26.67;9.68;;;;;;;14.76;84.67;101323.03;5095035;28;20051;-64
2022/10/30 03:59:16;;;;;;;26.10;10.00;;;;;;;14.72;84.45;101318.19;5094495;28;20118;-65
2022/10/30 04:01:54;;;;;;;28.17;9.90;;;;;;;14.74;84.60;101317.00;5078790;28;20044;-63
2022/10/30 04:04:21;;;;;;;31.92;10.82;;;;;;;14.69;84.69;101318.53;5094547;28;20055;-63
2022/10/30 04:06:47;;;;;;;28.13;10.43;;;;;;;14.73;84.49;101318.00;5093573;28;20051;-62
2022/10/30 04:09:15;;;;;;;27.58;9.68;;;;;;;14.72;84.78;101324.38;5094601;28;20105;-64
2022/10/30 04:11:43;;;;;;;34.17;11.07;;;;;;;14.70;84.86;101321.03;5076648;28;20044;-64
2022/10/30 04:14:09;;;;;;;24.48;10.20;;;;;;;14.69;85.13;101329.19;5093708;28;20044;-64
2022/10/30 04:16:36;;;;;;;25.80;10.15;;;;;;;14.66;85.05;101327.72;5093163;28;20048;-65
2022/10/30 04:19:03;;;;;;;34.00;10.32;;;;;;;14.65;85.21;101323.38;5094858;28;20052;-64
2022/10/30 04:21:29;;;;;;;29.55;10.35;;;;;;;14.56;85.81;101319.81;5094536;28;20036;-65
2022/10/30 04:23:57;;;;;;;33.20;10.85;;;;;;;14.50;86.13;101325.84;5094363;28;20137;-65
2022/10/30 04:26:27;;;;;;;33.75;11.98;;;;;;;14.48;86.08;101333.19;5094136;28;20465;-64
2022/10/30 04:28:53;;;;;;;30.27;10.15;;;;;;;14.46;86.32;101332.50;5094029;28;20082;-65
2022/10/30 04:31:20;;;;;;;27.50;9.77;;;;;;;14.44;86.32;101336.31;5094223;28;20133;-65
2022/10/30 04:33:47;;;;;;;32.75;10.25;;;;;;;14.43;86.14;101348.84;5093222;28;20082;-64
2022/10/30 04:36:16;;;;;;;32.95;10.07;;;;;;;14.45;86.38;101328.16;5094293;28;20043;-64
2022/10/30 04:38:44;;;;;;;31.40;9.73;;;;;;;14.42;86.59;101333.81;5094289;28;20547;-64
2022/10/30 04:41:11;;;;;;;33.10;10.35;;;;;;;14.40;86.57;101330.47;5056196;28;20070;-64
2022/10/30 04:43:50;;;;;;;29.90;10.23;;;;;;;14.38;86.57;101325.31;5094087;28;20506;-64
2022/10/30 04:46:17;;;;;;;29.45;11.40;;;;;;;14.36;86.74;101321.97;5093899;28;20043;-64
2022/10/30 04:48:44;;;;;;;27.05;9.75;;;;;;;14.35;86.35;101322.13;5094129;28;20044;-64
2022/10/30 04:51:13;;;;;;;32.22;9.93;;;;;;;14.34;86.96;101315.97;5093631;28;20065;-64
2022/10/30 04:53:39;;;;;;;31.75;10.95;;;;;;;14.34;86.61;101318.63;5094009;28;20043;-64
2022/10/30 04:56:09;;;;;;;33.65;10.70;;;;;;;14.37;86.88;101312.13;5092732;28;20040;-64
2022/10/30 04:58:37;;;;;;;24.33;10.13;;;;;;;14.30;86.90;101311.97;5093555;28;20040;-64
2022/10/30 05:01:06;;;;;;;32.95;10.68;;;;;;;14.28;86.84;101316.63;5092918;28;20040;-64
2022/10/30 05:03:33;;;;;;;32.08;10.30;;;;;;;14.31;87.11;101310.13;5092401;28;20160;-64
2022/10/30 05:06:12;;;;;;;28.55;10.23;;;;;;;14.23;87.35;101302.94;5093277;28;20051;-64
2022/10/30 05:08:39;;;;;;;36.20;10.82;;;;;;;14.17;87.19;101301.78;5093478;28;20074;-64
2022/10/30 05:11:16;;;;;;;34.40;10.68;;;;;;;14.12;87.32;101300.59;5102710;28;20151;-64
2022/10/30 05:13:43;;;;;;;30.33;11.05;;;;;;;14.13;87.41;101297.75;5113615;28;20186;-64
2022/10/30 05:16:10;;;;;;;32.60;10.82;;;;;;;14.12;87.30;101304.09;5113532;28;20485;-64
2022/10/30 05:18:36;;;;;;;29.55;10.73;;;;;;;14.12;87.43;101297.94;5112805;28;20054;-64
2022/10/30 05:21:03;;;;;;;29.25;10.40;;;;;;;14.18;87.58;101294.59;5113948;28;20101;-64
2022/10/30 05:23:30;;;;;;;32.95;10.40;;;;;;;14.13;87.50;101299.56;5113863;28;20527;-64
2022/10/30 05:25:59;;;;;;;37.65;11.32;;;;;;;14.16;87.69;101294.75;5112025;28;20126;-64
2022/10/30 05:28:26;;;;;;;35.80;11.10;;;;;;;14.13;87.76;101288.91;5112668;28;20051;-64
2022/10/30 05:30:55;;;;;;;36.30;11.02;;;;;;;14.10;87.75;101290.09;5113652;28;20069;-64
2022/10/30 05:33:40;;;;;;;34.30;10.23;;;;;;;14.05;88.16;101289.72;5112580;28;20043;-64
2022/10/30 05:36:07;;;;;;;28.58;10.82;;;;;;;14.02;88.17;101282.91;5107711;28;20067;-64
2022/10/30 05:38:34;;;;;;;37.97;10.98;;;;;;;13.98;88.41;101275.38;5093448;28;20058;-64
2022/10/30 05:41:01;;;;;;;31.08;11.75;;;;;;;13.95;88.27;101273.88;5054132;28;20119;-64
2022/10/30 05:43:28;;;;;;;24.90;10.38;;;;;;;13.95;87.94;101271.22;5093159;28;20054;-64
2022/10/30 05:45:56;;;;;;;38.38;11.35;;;;;;;13.94;88.00;101269.53;5093116;28;20059;-64
2022/10/30 05:48:22;;;;;;;26.92;10.55;;;;;;;13.99;87.69;101277.06;5091750;28;20040;-64
2022/10/30 05:50:49;;;;;;;34.03;10.25;;;;;;;14.02;87.51;101284.72;5092733;28;20074;-64
2022/10/30 05:53:23;;;;;;;32.63;11.75;;;;;;;13.98;87.90;101286.88;5093029;28;20131;-64
2022/10/30 05:55:55;;;;;;;28.10;10.57;;;;;;;14.10;87.06;101287.41;5093274;28;20048;-64
2022/10/30 05:58:24;;;;;;;28.30;11.15;;;;;;;14.02;87.62;101295.38;5092915;28;20497;-64
2022/10/30 06:00:53;;;;;;;32.70;10.32;;;;;;;13.96;88.11;101296.03;5092048;28;20048;-64
2022/10/30 06:03:34;;;;;;;26.63;10.38;;;;;;;13.85;88.47;101291.84;5093073;28;20072;-64
2022/10/30 06:06:01;;;;;;;33.47;10.65;;;;;;;13.89;88.37;101300.34;5092346;28;20040;-64
2022/10/30 06:08:27;;;;;;;28.63;10.13;;;;;;;13.84;88.41;101292.84;5075416;28;20408;-64
2022/10/30 06:10:57;;;;;;;31.52;11.63;;;;;;;13.80;88.61;101292.31;5075203;28;20405;-64
2022/10/30 06:13:30;;;;;;;25.45;11.10;;;;;;;13.76;88.91;101292.81;5092882;28;20044;-64
2022/10/30 06:16:03;;;;;;;37.67;11.07;;;;;;;13.76;88.74;101298.16;5092584;28;20048;-64
2022/10/30 06:18:50;;;;;;;29.83;11.82;;;;;;;13.72;88.89;101292.31;5092943;28;20044;-63
2022/10/30 06:21:17;;;;;;;28.33;10.60;;;;;;;13.72;89.42;101292.31;5093131;28;20040;-64
2022/10/30 06:24:04;;;;;;;32.83;10.95;;;;;;;13.65;89.55;101301.94;5092820;28;20040;-63
2022/10/30 06:26:37;;;;;;;28.65;10.35;;;;;;;13.63;89.80;101301.28;5091659;28;20089;-63
2022/10/30 06:29:08;;;;;;;35.13;11.32;;;;;;;13.59;90.09;101292.75;5075519;28;20063;-64
2022/10/30 06:31:35;;;;;;;32.00;11.68;;;;;;;13.59;89.57;101303.41;5092482;28;20068;-63
2022/10/30 06:34:02;;;;;;;29.75;10.88;;;;;;;13.59;89.29;101303.41;5092640;28;20519;-63
2022/10/30 06:36:31;;;;;;;37.72;10.75;;;;;;;13.53;89.84;101303.22;5091419;28;20054;-63
2022/10/30 06:38:58;;;;;;;40.65;11.93;;;;;;;13.56;89.54;101306.41;5076677;28;20071;-63
2022/10/30 06:41:30;;;;;;;34.30;11.25;;;;;;;13.65;89.63;101296.63;5084347;28;20046;-65
2022/10/30 06:44:17;;;;;;;40.25;11.10;;;;;;;13.62;89.00;101299.59;5095168;28;20560;-63
2022/10/30 06:46:44;;;;;;;32.33;12.07;;;;;;;13.66;88.92;101302.78;5095061;28;20040;-65
2022/10/30 06:49:11;;;;;;;28.10;10.65;;;;;;;13.68;89.15;101301.63;5096681;28;20127;-64
2022/10/30 06:51:38;;;;;;;29.55;11.05;;;;;;;13.71;89.29;101309.28;5095858;28;20127;-64
2022/10/30 06:54:05;;;;;;;33.90;11.07;;;;;;;13.77;89.14;101316.66;5096199;28;20071;-63
2022/10/30 06:56:50;;;;;;;30.45;11.98;;;;;;;13.78;89.20;101307.66;5069973;28;20401;-62
2022/10/30 06:59:37;;;;;;;42.72;12.52;;;;;;;13.66;89.18;101314.28;5070264;28;20107;-62
2022/10/30 07:02:24;;;;;;;32.10;11.98;;;;;;;13.70;88.97;101312.09;5069825;28;20044;-62
2022/10/30 07:04:55;;;;;;;28.50;12.18;;;;;;;13.73;88.57;101312.63;5069464;28;20068;-62
2022/10/30 07:07:22;;;;;;;35.75;11.60;;;;;;;13.79;89.10;101314.66;5063457;28;20045;-63
2022/10/30 07:09:49;;;;;;;41.63;11.85;;;;;;;13.83;88.56;101305.34;5063247;28;20045;-62
2022/10/30 07:12:20;;;;;;;31.02;11.20;;;;;;;13.86;88.63;101308.69;5050378;28;20057;-62
2022/10/30 07:15:07;;;;;;;26.35;10.60;;;;;;;13.86;88.02;101311.34;5049215;28;20042;-62
2022/10/30 07:17:40;;;;;;;32.38;10.82;;;;;;;13.86;87.65;101306.00;5050040;28;20569;-63
2022/10/30 07:20:14;;;;;;;38.50;11.00;;;;;;;13.88;87.94;101312.88;5049775;28;20571;-63
2022/10/30 07:22:41;;;;;;;28.92;10.55;;;;;;;14.00;87.27;101308.06;5049781;28;20045;-62
2022/10/30 07:25:08;;;;;;;30.33;11.15;;;;;;;14.07;87.46;101314.41;5049603;28;20125;-64
2022/10/30 07:27:52;;;;;;;29.30;10.43;;;;;;;14.18;87.31;101311.44;5049725;28;20574;-64
2022/10/30 07:30:33;;;;;;;33.83;10.93;;;;;;;14.19;86.95;101313.09;5049438;28;20140;-64
2022/10/30 07:33:20;;;;;;;40.50;11.55;;;;;;;14.27;86.11;101311.47;5034908;28;20049;-64
2022/10/30 07:35:59;;;;;;;33.85;11.48;;;;;;;14.29;85.66;101315.63;5052403;28;20036;-65
2022/10/30 07:38:43;;;;;;;30.33;11.20;;;;;;;14.42;85.22;101309.78;5068810;28;20048;-64
2022/10/30 07:41:21;;;;;;;23.42;9.40;;;;;;;14.51;85.03;101313.31;5038178;28;20048;-64
2022/10/30 07:43:51;;;;;;;32.65;10.73;;;;;;;14.60;85.08;101309.66;5067830;28;20470;-64
2022/10/30 07:46:37;;;;;;;30.27;10.95;;;;;;;14.65;84.69;101317.19;5069290;28;20040;-65
2022/10/30 07:49:23;;;;;;;32.83;11.00;;;;;;;14.58;83.13;101315.19;5069326;28;20060;-65
2022/10/30 07:51:56;;;;;;;32.83;10.32;;;;;;;14.69;83.72;101310.50;5068987;28;20413;-64
2022/10/30 07:54:23;;;;;;;34.78;10.48;;;;;;;14.80;83.94;101310.16;5067649;28;20040;-65
2022/10/30 07:56:50;;;;;;;26.70;9.77;;;;;;;14.83;82.37;101312.50;5069013;28;20033;-64
2022/10/30 07:59:37;;;;;;;34.33;10.75;;;;;;;15.03;82.40;101307.66;5068828;28;20495;-64
2022/10/30 08:02:24;;;;;;;37.25;11.32;;;;;;;15.28;81.05;101308.44;5068021;28;20456;-65
2022/10/30 08:05:11;;;;;;;33.88;10.80;;;;;;;15.65;79.77;101322.19;5066904;28;20044;-65
2022/10/30 08:07:57;;;;;;;34.30;10.73;;;;;;;15.62;80.15;101317.16;5057531;28;20402;-65
2022/10/30 08:10:25;;;;;;;35.75;10.77;;;;;;;16.00;78.35;101320.03;5055611;28;20045;-64
2022/10/30 08:12:51;;;;;;;26.80;10.82;;;;;;;16.57;75.73;101318.81;5056064;28;20045;-64
2022/10/30 08:15:19;;;;;;;31.10;10.13;;;;;;;16.86;73.57;101310.06;5055266;28;20394;-64
2022/10/30 08:17:48;;;;;;;25.35;10.73;;;;;;;17.14;72.50;101306.81;5054356;28;20041;-65
2022/10/30 08:20:18;;;;;;;29.05;9.65;;;;;;;17.15;71.60;101306.59;5054477;28;20040;-64
2022/10/30 08:22:51;;;;;;;35.15;10.27;;;;;;;16.78;73.39;101305.59;5055551;28;20123;-63
2022/10/30 08:25:24;;;;;;;32.90;11.52;;;;;;;16.41;74.39;101307.22;5055573;28;20049;-63
2022/10/30 08:27:58;;;;;;;26.90;10.45;;;;;;;16.29;76.13;101314.00;5055220;28;20070;-63
2022/10/30 08:30:33;;;;;;;26.90;9.90;;;;;;;16.11;76.41;101312.44;5053949;28;20099;-63
2022/10/30 08:33:02;;;;;;;39.42;10.35;;;;;;;16.02;77.65;101310.00;5054904;28;20045;-64
2022/10/30 08:35:50;;;;;;;30.73;10.02;;;;;;;15.93;77.88;101301.16;5055030;28;20041;-64
2022/10/30 08:38:18;;;;;;;25.75;10.30;;;;;;;15.88;77.95;101301.72;5054916;28;20076;-63
2022/10/30 08:40:53;;;;;;;28.65;9.85;;;;;;;15.77;78.25;101310.13;5017646;28;20056;-64
2022/10/30 08:43:22;;;;;;;22.95;9.82;;;;;;;15.65;77.04;101304.28;5054754;28;20040;-64
2022/10/30 08:45:49;;;;;;;31.90;9.48;;;;;;;15.66;77.55;101305.97;5054795;28;20112;-63
2022/10/30 08:48:19;;;;;;;25.60;10.05;;;;;;;15.66;77.94;101305.13;5054852;28;20037;-64
2022/10/30 08:50:45;;;;;;;26.13;9.82;;;;;;;15.73;77.73;101298.91;5053333;28;20063;-64
2022/10/30 08:53:19;;;;;;;29.05;10.00;;;;;;;15.80;77.58;101306.25;5054943;28;20071;-64
2022/10/30 08:55:47;;;;;;;32.65;10.02;;;;;;;15.81;77.79;101297.22;5053933;28;20520;-64
2022/10/30 08:58:21;;;;;;;28.83;9.45;;;;;;;15.88;77.58;101300.84;5054229;28;20044;-64
2022/10/30 09:00:48;;;;;;;21.75;9.05;;;;;;;15.94;77.42;101305.53;5055050;28;20065;-64
2022/10/30 09:03:26;;;;;;;35.40;9.98;;;;;;;15.98;77.20;101301.47;5110650;27;20380;-63
2022/10/30 09:06:13;;;;;;;29.17;9.52;;;;;;;16.06;77.33;101298.78;5105759;28;20044;-63
2022/10/30 09:09:00;;;;;;;26.10;8.93;;;;;;;16.17;76.84;101300.22;5090139;28;20094;-63
2022/10/30 09:11:32;;;;;;;33.00;11.48;;;;;;;16.18;76.79;101293.84;5090989;28;20033;-63
2022/10/30 09:13:58;;;;;;;34.28;10.07;;;;;;;16.41;75.31;101299.19;5127521;28;20048;-62
2022/10/30 09:16:25;;;;;;;25.55;10.30;;;;;;;16.38;75.13;101291.50;5130959;28;20065;-65
2022/10/30 09:18:52;;;;;;;38.60;10.15;;;;;;;16.44;75.59;101284.59;5130566;27;20097;-65
2022/10/30 09:21:21;;;;;;;32.22;9.40;;;;;;;16.40;75.49;101277.94;5131099;27;20082;-64
2022/10/30 09:23:50;;;;;;;24.98;10.07;;;;;;;16.55;75.51;101268.09;5131254;27;20036;-64
2022/10/30 09:26:36;;;;;;;35.17;10.48;;;;;;;16.57;74.97;101265.25;5130856;28;20039;-64
2022/10/30 09:29:12;;;;;;;24.77;9.35;;;;;;;16.58;75.39;101259.72;5130567;27;20043;-64
2022/10/30 09:31:59;;;;;;;33.92;10.18;;;;;;;16.68;73.56;101268.34;5129712;28;20082;-63
2022/10/30 09:34:29;;;;;;;31.02;9.73;;;;;;;16.73;74.06;101266.97;5130945;27;20058;-63
2022/10/30 09:37:00;;;;;;;;;;;;;;;16.85;73.04;101273.59;5116592;28;20131;-63
2022/10/30 09:39:32;;;;;;;;;;;;;;;16.94;72.68;101269.81;5072022;28;20003;-64
2022/10/30 09:42:35;;;;;;;39.20;9.63;;;;;;;17.02;72.85;101266.19;5109049;28;19973;-63
2022/10/30 09:45:45;;;;;;;32.70;9.77;;;;;;;17.14;72.17;101274.63;5109853;28;20070;-63
2022/10/30 09:48:32;;;;;;;30.40;9.60;;;;;;;17.23;72.58;101278.88;5109741;28;20044;-64
2022/10/30 09:51:23;;;;;;;28.90;9.55;;;;;;;17.40;71.81;101274.97;5092734;28;20498;-64
2022/10/30 09:54:14;;;;;;;29.80;10.45;;;;;;;17.38;71.41;101276.19;5108804;28;20035;-64
2022/10/30 09:57:11;;;;;;;31.25;9.80;;;;;;;17.40;71.49;101274.16;5109759;28;20055;-64
2022/10/30 10:00:04;;;;;;;35.35;10.77;;;;;;;17.63;71.19;101266.00;5109759;28;20036;-63
2022/10/30 10:02:57;;;;;;;29.88;9.52;;;;;;;17.72;70.38;101272.91;5070556;28;20387;-63
2022/10/30 10:05:51;;;;;;;30.00;9.60;;;;;;;17.90;70.33;101274.38;5069460;28;20044;-64
2022/10/30 10:08:43;;;;;;;29.20;9.43;;;;;;;17.96;69.71;101269.09;5069970;28;20069;-64
2022/10/30 10:11:53;;;;;;;30.75;9.18;;;;;;;18.14;69.81;101265.97;5069833;28;20486;-64
2022/10/30 10:14:31;;;;;;;32.75;9.32;;;;;;;18.30;69.21;101266.72;5052053;28;20506;-65
2022/10/30 10:17:01;;;;;;;38.53;8.60;;;;;;;18.40;67.29;101267.25;5069614;28;20041;-64
2022/10/30 10:19:34;;;;;;;27.88;8.88;;;;;;;18.62;67.49;101268.03;5069050;28;20060;-65
2022/10/30 10:22:21;;;;;;;25.30;9.18;;;;;;;18.76;67.16;101264.44;5069506;28;20494;-63
2022/10/30 10:24:48;;;;;;;28.33;8.73;;;;;;;18.82;66.83;101264.72;5069996;28;20036;-65
2022/10/30 10:27:55;;;;;;;26.42;8.70;;;;;;;18.86;65.78;101272.19;5069415;28;20040;-64
2022/10/30 10:30:23;;;;;;;27.38;8.85;;;;;;;19.00;65.24;101262.34;5069523;28;20094;-63
2022/10/30 10:33:20;;;;;;;31.02;8.60;;;;;;;19.06;65.18;101263.41;5051819;28;20044;-63
2022/10/30 10:36:16;;;;;;;32.97;9.93;;;;;;;19.22;64.18;101259.59;5069972;28;20053;-63
2022/10/30 10:42:16;;;;;;;26.00;8.07;;;;;;;19.79;62.46;101257.56;5073330;28;20392;-63
2022/10/30 10:45:16;;;;;;;27.70;8.13;;;;;;;20.33;60.36;101267.41;5090442;28;20075;-63
2022/10/30 10:48:08;;;;;;;27.73;8.02;;;;;;;22.58;53.21;101266.06;5090364;28;20440;-64
2022/10/30 10:50:45;;;;;;;32.03;8.00;;;;;;;24.55;48.10;101263.22;5090395;28;20456;-64
2022/10/30 10:53:29;;;;;;;26.75;8.27;;;;;;;25.59;45.21;101262.53;5090357;28;20040;-63
2022/10/30 10:55:59;;;;;;;24.33;8.05;;;;;;;26.41;43.55;101267.56;5090292;28;20048;-64
2022/10/30 11:01:08;;;;;;;26.95;7.93;;;;;;;26.33;42.46;101250.84;5110843;27;20713;-64
2022/10/30 11:04:01;;;;;;;28.15;7.55;;;;;;;25.94;42.64;101251.56;5110875;28;20063;-64
2022/10/30 11:06:33;;;;;;;26.02;8.10;;;;;;;27.03;40.15;101256.78;5109983;28;20499;-64
2022/10/30 11:09:20;;;;;;;37.45;8.45;;;;;;;27.27;39.17;101260.13;5109386;28;20419;-64
2022/10/30 11:11:49;;;;;;;20.98;7.22;;;;;;;27.35;38.96;101257.78;5110918;28;20058;-64
2022/10/30 11:14:21;;;;;;;29.73;8.50;;;;;;;27.69;38.24;101254.09;5104490;28;20096;-64
2022/10/30 11:17:03;;;;;;;28.05;7.75;;;;;;;28.80;37.36;101265.44;5109418;28;20115;-64
2022/10/30 11:19:31;;;;;;;27.20;7.50;;;;;;;29.15;35.69;101259.38;5108470;28;20131;-64
2022/10/30 11:21:59;;;;;;;23.23;7.30;;;;;;;29.30;35.73;101258.59;5110580;28;20488;-64
2022/10/30 11:24:32;;;;;;;23.25;7.45;;;;;;;28.51;35.81;101252.94;5109011;28;20047;-64
2022/10/30 11:27:25;;;;;;;25.13;7.10;;;;;;;28.87;35.72;101252.34;5109118;28;20040;-64
2022/10/30 11:29:57;;;;;;;24.20;6.75;;;;;;;28.95;35.67;101254.59;5109779;28;20036;-64
2022/10/30 11:32:27;;;;;;;30.63;7.30;;;;;;;28.06;36.30;101242.47;5110375;28;20040;-64
2022/10/30 11:37:48;;;;;;;29.58;7.30;;;;;;;28.63;36.90;101244.56;5110878;27;20734;-64
2022/10/30 11:40:18;;;;;;;23.55;6.88;;;;;;;28.10;36.40;101236.22;5073127;28;20024;-65
2022/10/30 11:43:03;;;;;;;26.83;7.57;;;;;;;27.89;36.65;101237.94;5109475;28;20485;-65
2022/10/30 11:45:33;;;;;;;25.10;7.40;;;;;;;26.79;39.13;101240.69;5110514;28;20097;-65
2022/10/30 11:48:01;;;;;;;27.88;7.45;;;;;;;26.40;40.09;101241.44;5110743;28;20401;-65
2022/10/30 11:50:31;;;;;;;20.27;7.00;;;;;;;25.06;42.74;101229.94;5109540;28;20044;-64
2022/10/30 11:53:02;;;;;;;21.67;7.47;;;;;;;24.40;43.87;101228.41;5110629;28;20649;-66
2022/10/30 11:55:36;;;;;;;30.98;7.25;;;;;;;23.99;45.48;101230.09;5110514;28;20400;-64
2022/10/30 11:58:05;;;;;;;24.23;7.60;;;;;;;23.82;47.28;101228.06;5110482;28;20762;-65